F E Warren AFB, Wyoming
Current Conditions -  °F | °C
As of 9:53 AM on Thursday 27 Nov 2014 (Local Time) from KCYS Reporting Station
Clear Clear  
Wind Chill: 50°   Ceiling: Unl
Heat Index: 50°   Visibility: 10mi
Dew Point: 17°   Wind: 22mph
Humidity: 27%   Direction: 280°W
Pressure: 30.19"   Gusts: 33mph
Location:  41.13°N, 104.82°W
Report Text: KCYS 271653Z 28019G29KT 10SM CLR 10/M08 A3019 RMK AO2 PK WND 29029/1648 SLP225 T01001083
Loading
Personal Weather Stations






























Interactive Weather Map New forecast layout! Learn more

10-Day Weather Forecast

Advertisements
Track Severe Weather on mobile